Time;durP1;ratioP1;P1;durP2;ratioP2;P2;SDS_P1;SDS_P2;PMS_P1;PMS_P2;Temp;Humidity;BMP_temperature;BMP_pressure;BME280_temperature;BME280_humidity;BME280_pressure;Samples;Min_cycle;Max_cycle;Signal;HPM_P1;HPM_P2
2021/08/03 00:01:15;;;;;;;5.35;3.97;;;;;;;16.09;89.24;100282.47;5116454;27;20067;-80
2021/08/03 00:04:07;;;;;;;6.13;4.70;;;;;;;16.11;89.31;100285.03;5103431;28;21196;-80
2021/08/03 00:06:43;;;;;;;8.15;4.65;;;;;;;16.11;89.19;100287.72;5124650;28;20075;-80
2021/08/03 00:09:09;;;;;;;5.80;3.97;;;;;;;16.12;89.02;100278.75;5123202;28;20032;-79
2021/08/03 00:11:42;;;;;;;6.03;4.00;;;;;;;16.13;89.03;100281.31;5133520;27;20023;-79
2021/08/03 00:14:09;;;;;;;6.45;4.13;;;;;;;16.10;88.90;100284.19;5126040;27;20483;-80
2021/08/03 00:16:39;;;;;;;4.80;4.30;;;;;;;16.07;88.97;100288.88;5111482;27;20043;-80
2021/08/03 00:19:07;;;;;;;7.78;4.32;;;;;;;16.06;89.06;100296.03;5113629;27;20050;-80
2021/08/03 00:21:35;;;;;;;6.68;4.05;;;;;;;16.04;89.15;100289.13;5115614;27;20086;-80
2021/08/03 00:24:03;;;;;;;5.88;3.83;;;;;;;16.08;89.36;100293.28;5118576;27;20103;-80
2021/08/03 00:26:29;;;;;;;5.22;4.10;;;;;;;16.06;89.21;100279.16;5120408;27;20097;-79
2021/08/03 00:28:56;;;;;;;6.05;4.15;;;;;;;16.07;89.42;100283.56;5127239;28;20082;-79
2021/08/03 00:31:25;;;;;;;5.15;4.00;;;;;;;16.05;89.07;100286.34;5118860;27;20039;-80
2021/08/03 00:33:54;;;;;;;8.48;3.97;;;;;;;16.07;89.53;100294.22;5111459;27;20051;-80
2021/08/03 00:36:24;;;;;;;6.07;3.45;;;;;;;16.10;89.28;100289.53;5109626;27;20047;-80
2021/08/03 00:38:53;;;;;;;4.75;3.53;;;;;;;16.15;89.04;100291.88;5116878;27;20052;-80
2021/08/03 00:41:24;;;;;;;6.72;4.70;;;;;;;16.15;88.98;100286.53;5110887;28;20046;-80
2021/08/03 00:43:51;;;;;;;6.22;4.78;;;;;;;16.16;88.63;100282.91;5115177;27;20102;-80
2021/08/03 00:46:18;;;;;;;5.38;4.30;;;;;;;16.19;88.42;100293.38;5107204;28;20559;-80
2021/08/03 00:48:45;;;;;;;7.10;3.90;;;;;;;16.18;88.46;100286.31;5114071;27;20043;-80
2021/08/03 00:51:11;;;;;;;6.35;4.50;;;;;;;16.19;88.28;100295.19;5105801;27;20054;-79
2021/08/03 00:53:42;;;;;;;5.95;4.55;;;;;;;16.13;88.26;100292.00;5111147;27;20061;-80
2021/08/03 00:56:12;;;;;;;7.05;4.07;;;;;;;16.10;88.20;100297.53;5107476;27;20039;-80
2021/08/03 00:58:39;;;;;;;7.65;4.95;;;;;;;16.08;88.72;100293.28;5107236;28;20062;-80
2021/08/03 01:01:06;;;;;;;5.55;4.32;;;;;;;16.06;88.49;100288.03;5110010;28;20058;-80
2021/08/03 01:03:33;;;;;;;6.68;5.22;;;;;;;16.06;88.70;100288.03;5105968;28;20048;-80
2021/08/03 01:06:08;;;;;;;6.30;4.90;;;;;;;16.06;88.65;100295.19;5110155;28;20043;-80
2021/08/03 01:09:02;;;;;;;6.05;4.63;;;;;;;16.08;88.87;100290.59;5115958;27;20047;-80
2021/08/03 01:11:59;;;;;;;6.95;4.68;;;;;;;16.15;88.92;100294.56;5108662;28;20504;-80
2021/08/03 01:15:06;;;;;;;5.45;4.88;;;;;;;16.18;88.57;100290.81;5109722;27;20074;-80
2021/08/03 01:17:51;;;;;;;7.72;5.05;;;;;;;16.19;88.73;100292.53;5088433;28;20086;-80
2021/08/03 01:20:43;;;;;;;6.25;5.20;;;;;;;16.14;88.32;100288.34;5109667;27;20083;-79
2021/08/03 01:23:37;;;;;;;7.13;5.82;;;;;;;16.16;88.55;100287.41;5117430;28;20142;-80
2021/08/03 01:26:37;;;;;;;6.78;5.47;;;;;;;16.17;88.61;100289.97;5118868;27;20052;-80
2021/08/03 01:29:06;;;;;;;;;;;;;;;16.18;88.69;100288.16;5123932;27;20060;-80
2021/08/03 01:31:37;;;;;;;8.02;5.93;;;;;;;16.17;88.68;100294.44;5118294;28;19928;-80
2021/08/03 01:34:06;;;;;;;8.88;6.78;;;;;;;16.17;88.68;100297.13;5117976;28;20055;-80
2021/08/03 01:36:35;;;;;;;10.38;7.35;;;;;;;16.13;88.61;100293.81;5114421;27;20051;-80
2021/08/03 01:39:03;;;;;;;9.50;7.15;;;;;;;16.10;89.01;100283.34;5104532;28;20050;-80
2021/08/03 01:41:32;;;;;;;10.05;7.55;;;;;;;16.10;89.16;100288.69;5105666;27;20078;-80
2021/08/03 01:44:02;;;;;;;10.07;7.35;;;;;;;16.04;89.58;100286.47;5102648;28;20040;-80
2021/08/03 01:46:32;;;;;;;13.80;7.93;;;;;;;16.03;89.46;100282.09;5103345;28;20048;-80
2021/08/03 01:49:00;;;;;;;12.30;8.48;;;;;;;16.01;89.75;100276.00;5106647;28;20051;-80
2021/08/03 01:51:29;;;;;;;10.73;7.60;;;;;;;15.94;89.72;100282.72;5113223;27;20043;-80
2021/08/03 01:53:57;;;;;;;11.25;7.95;;;;;;;15.96;89.97;100278.97;5125248;27;20048;-79
2021/08/03 01:56:25;;;;;;;9.77;7.60;;;;;;;15.95;89.98;100281.75;5129654;27;20079;-80
2021/08/03 01:58:53;;;;;;;11.07;7.90;;;;;;;15.90;90.22;100275.91;5122262;27;20044;-80
2021/08/03 02:01:20;;;;;;;10.52;7.88;;;;;;;15.91;90.45;100280.25;5116819;28;20039;-80
2021/08/03 02:03:48;;;;;;;10.45;8.20;;;;;;;15.90;90.49;100278.59;5121569;28;20059;-80
2021/08/03 02:06:17;;;;;;;11.77;8.95;;;;;;;15.90;90.46;100282.06;5120421;27;20042;-80
2021/08/03 02:08:46;;;;;;;11.57;8.07;;;;;;;15.92;90.18;100288.16;5108486;27;20054;-80
2021/08/03 02:11:14;;;;;;;10.18;7.78;;;;;;;15.94;90.16;100277.38;5113165;27;20040;-80
2021/08/03 02:13:44;;;;;;;12.05;7.95;;;;;;;15.94;90.00;100285.38;5106149;28;20482;-80
2021/08/03 02:16:11;;;;;;;9.93;7.15;;;;;;;15.93;90.22;100286.34;5112679;28;20474;-80
2021/08/03 02:18:40;;;;;;;8.82;7.40;;;;;;;15.97;90.06;100290.53;5108281;28;20048;-80
2021/08/03 02:21:07;;;;;;;8.90;6.47;;;;;;;15.98;89.93;100279.72;5106522;28;20047;-80
2021/08/03 02:23:34;;;;;;;9.27;6.63;;;;;;;16.00;89.63;100277.81;5104873;28;20334;-80
2021/08/03 02:26:00;;;;;;;10.05;6.72;;;;;;;16.03;89.01;100276.75;5106581;28;20056;-80
2021/08/03 02:28:27;;;;;;;8.30;6.40;;;;;;;16.00;88.95;100271.63;5109333;28;20062;-80
2021/08/03 02:30:58;;;;;;;7.88;6.22;;;;;;;15.96;88.96;100264.78;5105191;28;20059;-80
2021/08/03 02:33:30;;;;;;;9.73;6.97;;;;;;;15.93;89.04;100268.50;5104079;28;20043;-80
2021/08/03 02:36:02;;;;;;;8.85;6.55;;;;;;;15.94;89.39;100272.88;5105877;28;20051;-80
2021/08/03 02:38:34;;;;;;;9.55;6.68;;;;;;;15.94;89.72;100264.03;5105692;28;20056;-80
2021/08/03 02:41:01;;;;;;;11.00;6.70;;;;;;;15.90;89.55;100263.38;5105750;28;20047;-80
2021/08/03 02:43:32;;;;;;;9.05;6.78;;;;;;;15.84;89.53;100258.50;5109688;27;20514;-80
2021/08/03 02:46:03;;;;;;;8.45;6.72;;;;;;;15.80;89.47;100267.69;5109278;27;20058;-80
2021/08/03 02:48:34;;;;;;;10.30;6.85;;;;;;;15.74;90.00;100260.94;5109989;28;20051;-80
2021/08/03 02:51:02;;;;;;;9.52;6.20;;;;;;;15.70;90.41;100259.47;5108511;28;20091;-80
2021/08/03 02:53:35;;;;;;;10.85;6.60;;;;;;;15.71;90.71;100263.00;5117879;28;20048;-79
2021/08/03 02:56:10;;;;;;;7.60;6.30;;;;;;;15.71;90.85;100260.31;5127863;27;20082;-79
2021/08/03 02:58:51;;;;;;;12.10;6.32;;;;;;;15.72;90.51;100256.69;5123252;27;20056;-80
2021/08/03 03:01:21;;;;;;;9.38;6.65;;;;;;;15.66;90.68;100257.97;5112977;28;20052;-80
2021/08/03 03:03:52;;;;;;;10.82;6.82;;;;;;;15.63;91.04;100255.50;5120592;27;20046;-79
2021/08/03 03:06:22;;;;;;;10.68;7.03;;;;;;;15.66;91.42;100257.97;5114779;28;20058;-79
2021/08/03 03:08:50;;;;;;;10.57;6.90;;;;;;;15.66;91.54;100257.97;5122104;27;20050;-79
2021/08/03 03:11:19;;;;;;;10.88;7.15;;;;;;;15.65;91.30;100256.25;5125915;27;20031;-78
2021/08/03 03:13:55;;;;;;;8.98;6.80;;;;;;;15.60;91.16;100252.19;5127843;27;20046;-80
2021/08/03 03:16:24;;;;;;;8.02;5.97;;;;;;;15.58;91.33;100257.66;5108506;28;20134;-80
2021/08/03 03:18:53;;;;;;;8.40;6.03;;;;;;;15.56;91.48;100259.59;5119583;27;20071;-80
2021/08/03 03:21:22;;;;;;;10.10;6.45;;;;;;;15.53;91.61;100257.09;5109770;27;20066;-80
2021/08/03 03:23:51;;;;;;;8.43;6.03;;;;;;;15.48;91.62;100253.03;5104531;27;20128;-80
2021/08/03 03:26:19;;;;;;;8.57;6.25;;;;;;;15.42;91.75;100257.00;5113082;27;20047;-79
2021/08/03 03:28:48;;;;;;;11.10;7.32;;;;;;;15.38;92.10;100255.50;5108406;27;20039;-80
2021/08/03 03:31:16;;;;;;;9.40;6.40;;;;;;;15.34;92.20;100245.97;5104145;27;20047;-79
2021/08/03 03:33:43;;;;;;;12.40;7.57;;;;;;;15.31;92.33;100251.53;5106026;28;20054;-79
2021/08/03 03:36:12;;;;;;;12.65;8.63;;;;;;;15.19;93.27;100244.38;5109740;27;20035;-79
2021/08/03 03:38:41;;;;;;;11.43;7.97;;;;;;;15.11;93.56;100255.53;5114209;27;20402;-80
2021/08/03 03:41:09;;;;;;;19.00;10.07;;;;;;;15.05;94.74;100245.31;5119495;27;20044;-79
2021/08/03 03:43:35;;;;;;;15.20;9.50;;;;;;;14.99;94.61;100243.03;5109961;27;20058;-80
2021/08/03 03:46:17;;;;;;;18.60;10.85;;;;;;;14.98;95.06;100244.84;5115969;27;20796;-80
2021/08/03 03:49:06;;;;;;;16.30;10.15;;;;;;;14.98;95.29;100236.84;5109385;27;20050;-80
2021/08/03 03:51:37;;;;;;;19.80;10.93;;;;;;;14.96;95.37;100241.44;5105647;27;20121;-79
2021/08/03 03:54:12;;;;;;;17.52;10.38;;;;;;;14.93;95.41;100241.66;5111693;27;20047;-80
2021/08/03 03:56:50;;;;;;;18.30;10.65;;;;;;;14.96;95.82;100245.91;5117775;27;20116;-80
2021/08/03 03:59:20;;;;;;;15.73;10.02;;;;;;;15.02;96.37;100242.84;5118709;27;20046;-79
2021/08/03 04:01:52;;;;;;;16.10;9.75;;;;;;;15.00;95.62;100240.28;5122396;28;20072;-79
2021/08/03 04:04:19;;;;;;;14.52;9.15;;;;;;;14.95;95.32;100239.72;5125893;28;20063;-79
2021/08/03 04:06:46;;;;;;;17.23;9.50;;;;;;;14.95;96.00;100236.22;5127325;28;20078;-78
2021/08/03 04:09:20;;;;;;;12.85;8.73;;;;;;;14.99;95.91;100243.91;5123449;27;20100;-79
2021/08/03 04:11:47;;;;;;;11.38;8.02;;;;;;;15.00;95.67;100247.41;5117617;27;20052;-79
2021/08/03 04:14:17;;;;;;;11.93;8.30;;;;;;;15.01;95.72;100235.81;5117481;27;20115;-80
2021/08/03 04:16:44;;;;;;;13.23;7.60;;;;;;;15.06;95.43;100236.34;5112153;28;20108;-79
2021/08/03 04:19:10;;;;;;;11.27;6.90;;;;;;;15.09;95.62;100229.00;5113482;27;20082;-79
2021/08/03 04:21:37;;;;;;;10.65;7.05;;;;;;;15.15;95.65;100232.19;5111897;27;20048;-79
2021/08/03 04:24:04;;;;;;;11.35;7.00;;;;;;;15.19;95.25;100236.38;5121410;27;20054;-79
2021/08/03 04:26:32;;;;;;;10.38;6.85;;;;;;;15.24;94.99;100237.78;5111412;27;20051;-79
2021/08/03 04:28:58;;;;;;;9.02;6.78;;;;;;;15.28;94.91;100236.56;5113246;27;20048;-79
2021/08/03 04:31:25;;;;;;;9.85;6.45;;;;;;;15.35;94.26;100237.03;5118291;27;20052;-79
2021/08/03 04:33:52;;;;;;;10.70;6.80;;;;;;;15.36;93.91;100244.06;5121837;28;20046;-79
2021/08/03 04:36:19;;;;;;;8.85;7.00;;;;;;;15.39;93.83;100243.84;5125905;27;20031;-79
2021/08/03 04:38:45;;;;;;;11.20;6.68;;;;;;;15.41;93.59;100239.28;5114005;27;20471;-79
2021/08/03 04:41:15;;;;;;;8.25;6.28;;;;;;;15.42;93.42;100243.66;5111581;27;20392;-80
2021/08/03 04:43:42;;;;;;;7.97;6.28;;;;;;;15.45;93.37;100240.75;5108548;27;20047;-80
2021/08/03 04:46:10;;;;;;;9.63;6.18;;;;;;;15.44;93.27;100245.22;5112757;27;20036;-79
2021/08/03 04:48:37;;;;;;;7.68;6.10;;;;;;;15.44;93.17;100231.88;5112996;28;20044;-80
2021/08/03 04:51:04;;;;;;;6.72;5.90;;;;;;;15.49;92.51;100233.38;5114004;27;20058;-79
2021/08/03 04:53:31;;;;;;;8.27;6.40;;;;;;;15.51;92.32;100227.00;5112313;28;20062;-80
2021/08/03 04:55:58;;;;;;;9.60;6.05;;;;;;;15.54;91.99;100240.13;5105125;28;20043;-79
2021/08/03 04:58:25;;;;;;;8.48;6.28;;;;;;;15.57;92.25;100234.59;5113553;27;20067;-79
2021/08/03 05:00:52;;;;;;;8.13;6.00;;;;;;;15.60;91.74;100237.03;5111230;28;20035;-80
2021/08/03 05:03:19;;;;;;;7.25;6.25;;;;;;;15.59;91.55;100232.66;5107107;27;20075;-80
2021/08/03 05:05:46;;;;;;;8.98;6.00;;;;;;;15.62;91.37;100234.25;5104052;28;20044;-79
2021/08/03 05:08:13;;;;;;;8.18;6.10;;;;;;;15.68;91.33;100221.34;5108456;27;20054;-79
2021/08/03 05:10:39;;;;;;;8.10;6.20;;;;;;;15.71;90.87;100230.97;5112877;27;20473;-79
2021/08/03 05:13:06;;;;;;;9.63;5.80;;;;;;;15.71;90.59;100223.81;5104287;28;20832;-80
2021/08/03 05:15:33;;;;;;;7.32;5.45;;;;;;;15.74;90.39;100226.22;5109506;28;20054;-79
2021/08/03 05:17:59;;;;;;;8.50;5.72;;;;;;;15.74;89.49;100226.22;5106005;28;20079;-79
2021/08/03 05:20:26;;;;;;;9.68;6.97;;;;;;;15.74;90.04;100222.75;5109126;27;20135;-79
2021/08/03 05:22:53;;;;;;;9.05;6.55;;;;;;;15.73;89.82;100210.34;5111410;28;20039;-79
2021/08/03 05:25:20;;;;;;;9.32;6.28;;;;;;;15.82;89.41;100219.50;5110659;27;20054;-80
2021/08/03 05:27:46;;;;;;;8.23;5.93;;;;;;;15.86;88.92;100218.34;5107514;28;20054;-80
2021/08/03 05:30:13;;;;;;;9.45;6.18;;;;;;;15.85;88.50;100203.28;5114450;28;20036;-80
2021/08/03 05:32:40;;;;;;;8.20;5.43;;;;;;;15.92;87.72;100200.03;5128210;28;20074;-79
2021/08/03 05:35:08;;;;;;;7.53;5.75;;;;;;;15.98;87.61;100212.09;5124573;27;20060;-80
2021/08/03 05:37:38;;;;;;;6.90;5.53;;;;;;;15.99;87.34;100211.16;5114151;27;20036;-80
2021/08/03 05:40:08;;;;;;;8.85;6.15;;;;;;;15.99;87.17;100209.31;5117962;27;20482;-80
2021/08/03 05:42:36;;;;;;;8.52;6.10;;;;;;;16.00;87.22;100215.53;5109809;27;20112;-78
2021/08/03 05:45:04;;;;;;;9.02;5.70;;;;;;;16.03;87.50;100212.63;5111337;27;20058;-78
2021/08/03 05:47:31;;;;;;;12.02;5.75;;;;;;;16.03;87.13;100212.63;5122691;28;20364;-78
2021/08/03 05:49:58;;;;;;;9.15;5.43;;;;;;;16.09;86.80;100214.84;5115193;28;20107;-80
2021/08/03 05:52:24;;;;;;;8.98;5.80;;;;;;;16.11;86.17;100215.59;5116685;28;20107;-78
2021/08/03 05:54:51;;;;;;;9.27;5.80;;;;;;;16.12;86.07;100209.28;5117492;28;20047;-78
2021/08/03 05:57:18;;;;;;;6.85;5.45;;;;;;;16.15;86.03;100214.41;5116704;27;20131;-79
2021/08/03 05:59:44;;;;;;;7.00;5.30;;;;;;;16.18;86.21;100208.84;5117052;28;20103;-79
2021/08/03 06:02:11;;;;;;;7.13;5.57;;;;;;;16.23;86.13;100204.00;5129042;27;20054;-79
2021/08/03 06:04:38;;;;;;;7.15;5.65;;;;;;;16.32;85.43;100214.03;5116488;27;20035;-80
2021/08/03 06:07:08;;;;;;;8.07;5.78;;;;;;;16.38;84.85;100205.53;5119777;27;20048;-80
2021/08/03 06:09:36;;;;;;;8.70;5.78;;;;;;;16.46;84.19;100205.84;5118933;28;20054;-80
2021/08/03 06:12:04;;;;;;;7.88;5.40;;;;;;;16.61;84.16;100208.34;5122257;28;20043;-78
2021/08/03 06:14:41;;;;;;;10.20;6.00;;;;;;;16.76;83.60;100212.56;5124951;28;20115;-79
2021/08/03 06:17:12;;;;;;;11.30;6.47;;;;;;;16.87;82.03;100201.91;5118767;28;20073;-79
2021/08/03 06:19:50;;;;;;;8.13;6.07;;;;;;;16.98;81.75;100196.59;5118676;28;20040;-79
2021/08/03 06:22:18;;;;;;;8.82;5.70;;;;;;;17.09;80.64;100203.81;5123130;28;20056;-79
2021/08/03 06:24:49;;;;;;;9.80;6.35;;;;;;;17.11;81.02;100197.38;5127060;28;20039;-80
2021/08/03 06:27:17;;;;;;;;;;;;;;;17.18;80.21;100203.94;5123454;27;20062;-80
2021/08/03 06:29:45;;;;;;;9.85;5.70;;;;;;;17.21;80.00;100202.00;5122963;28;20019;-80
2021/08/03 06:32:12;;;;;;;10.90;5.90;;;;;;;17.23;79.77;100210.75;5115850;28;20071;-80
2021/08/03 06:34:43;;;;;;;8.70;5.80;;;;;;;17.21;80.17;100207.34;5113968;27;20048;-80
2021/08/03 06:37:11;;;;;;;9.70;5.65;;;;;;;17.16;80.60;100195.16;5122492;28;20044;-80
2021/08/03 06:39:38;;;;;;;6.03;5.32;;;;;;;17.23;79.87;100205.41;5111179;28;20040;-78
2021/08/03 06:42:34;;;;;;;8.40;5.75;;;;;;;17.24;79.65;100205.28;5107279;28;20044;-78
2021/08/03 06:45:05;;;;;;;10.00;5.13;;;;;;;17.32;78.84;100216.22;5119229;28;20043;-79
2021/08/03 06:48:10;;;;;;;6.47;5.40;;;;;;;17.39;78.12;100204.09;5132054;28;20103;-79
2021/08/03 06:50:53;;;;;;;8.68;5.40;;;;;;;17.48;78.06;100205.19;5122130;28;20040;-80
2021/08/03 06:53:21;;;;;;;7.93;5.25;;;;;;;17.51;77.81;100199.59;5122271;28;20111;-79
2021/08/03 06:55:48;;;;;;;7.43;5.20;;;;;;;17.57;77.77;100199.13;5122242;28;20040;-78
2021/08/03 06:58:28;;;;;;;7.43;4.93;;;;;;;17.51;77.52;100204.94;5110137;27;20671;-80
2021/08/03 07:00:57;;;;;;;7.05;4.70;;;;;;;17.45;78.25;100213.47;5108639;28;20076;-78
2021/08/03 07:03:26;;;;;;;9.10;5.80;;;;;;;17.40;77.96;100221.88;5113475;28;20130;-79
2021/08/03 07:05:56;;;;;;;8.02;4.97;;;;;;;17.37;78.79;100218.56;5110449;28;20156;-81
2021/08/03 07:08:23;;;;;;;7.20;4.78;;;;;;;17.38;79.31;100214.91;5110113;28;20639;-78
2021/08/03 07:10:53;;;;;;;8.90;4.63;;;;;;;17.49;79.19;100217.59;5114025;28;20061;-78
2021/08/03 07:13:20;;;;;;;5.30;4.57;;;;;;;17.63;78.08;100211.19;5108827;28;20048;-81
2021/08/03 07:15:47;;;;;;;5.57;4.65;;;;;;;17.76;75.92;100203.91;5108720;28;20437;-79
2021/08/03 07:18:20;;;;;;;4.72;4.00;;;;;;;17.93;76.06;100222.16;5110034;28;20378;-80
2021/08/03 07:20:49;;;;;;;5.10;4.03;;;;;;;18.14;75.68;100215.06;5107611;28;20059;-80
2021/08/03 07:23:20;;;;;;;6.60;4.28;;;;;;;18.28;74.63;100213.06;5120611;28;20052;-80
2021/08/03 07:25:47;;;;;;;;;;;;;;;18.35;74.34;100216.97;5112991;28;20059;-80
2021/08/03 07:28:14;;;;;;;6.78;4.90;;;;;;;18.32;73.80;100215.38;5118133;27;19954;-80
2021/08/03 07:30:44;;;;;;;6.97;4.80;;;;;;;18.33;73.71;100221.59;5133948;27;20058;-79
2021/08/03 07:33:12;;;;;;;5.07;4.57;;;;;;;18.46;74.34;100224.97;5128938;27;20099;-79
2021/08/03 07:35:42;;;;;;;8.23;6.10;;;;;;;18.53;73.94;100212.78;5129287;28;20028;-79
2021/08/03 07:38:10;;;;;;;7.70;5.20;;;;;;;18.71;73.32;100223.84;5118423;27;20139;-80
2021/08/03 07:40:37;;;;;;;6.60;4.63;;;;;;;18.73;73.28;100224.56;5112157;27;20043;-80
2021/08/03 07:43:05;;;;;;;7.72;4.50;;;;;;;18.78;73.64;100220.50;5117792;27;20473;-80
2021/08/03 07:45:33;;;;;;;5.55;4.90;;;;;;;18.75;72.22;100225.25;5115302;27;20046;-80
2021/08/03 07:48:00;;;;;;;7.20;4.70;;;;;;;18.66;73.54;100212.63;5113724;28;20061;-80
2021/08/03 07:50:27;;;;;;;8.65;4.50;;;;;;;18.70;73.79;100214.94;5113542;27;20053;-80
2021/08/03 07:52:55;;;;;;;6.15;4.18;;;;;;;18.72;73.61;100215.69;5114911;28;20070;-80
2021/08/03 07:55:22;;;;;;;8.85;6.00;;;;;;;18.62;73.50;100204.00;5118179;27;20399;-80
2021/08/03 07:57:49;;;;;;;6.93;4.82;;;;;;;18.80;73.96;100218.56;5127648;27;20042;-80
2021/08/03 08:00:15;;;;;;;6.82;5.00;;;;;;;19.03;72.44;100202.34;5109285;27;20043;-80
2021/08/03 08:02:42;;;;;;;9.38;4.30;;;;;;;19.24;71.87;100208.53;5120794;27;20043;-80
2021/08/03 08:05:11;;;;;;;5.30;4.47;;;;;;;19.33;71.30;100207.78;5112886;28;20122;-80
2021/08/03 08:07:38;;;;;;;5.68;4.60;;;;;;;19.36;71.32;100209.34;5119454;27;20818;-80
2021/08/03 08:10:07;;;;;;;6.53;5.00;;;;;;;19.39;71.16;100199.16;5111163;27;20047;-80
2021/08/03 08:12:35;;;;;;;;;;;;;;;19.64;70.87;100203.31;5113984;28;20044;-80
2021/08/03 08:15:02;;;;;;;8.25;7.07;;;;;;;19.71;69.75;100208.97;5112323;28;19923;-80
2021/08/03 08:17:29;;;;;;;7.95;7.15;;;;;;;19.59;70.31;100194.78;5110447;27;20493;-80
2021/08/03 08:19:55;;;;;;;9.60;8.60;;;;;;;19.40;71.54;100203.56;5113270;27;20055;-80
2021/08/03 08:22:22;;;;;;;10.05;8.93;;;;;;;19.14;72.87;100202.28;5112705;27;20448;-80
2021/08/03 08:24:49;;;;;;;12.23;9.45;;;;;;;19.08;73.50;100200.97;5113419;27;20043;-80
2021/08/03 08:27:16;;;;;;;14.05;10.65;;;;;;;18.95;74.13;100205.66;5110926;27;20044;-80
2021/08/03 08:29:42;;;;;;;13.13;10.80;;;;;;;18.72;75.26;100209.47;5108095;28;20040;-80
2021/08/03 08:32:10;;;;;;;13.90;12.40;;;;;;;18.53;76.70;100210.94;5112608;28;20043;-80
2021/08/03 08:34:38;;;;;;;15.50;12.70;;;;;;;18.38;78.28;100211.38;5112145;27;20145;-79
2021/08/03 08:37:05;;;;;;;12.73;10.75;;;;;;;18.32;79.31;100219.91;5107020;28;20501;-80
2021/08/03 08:39:33;;;;;;;14.95;12.68;;;;;;;18.23;82.84;100205.44;5112382;28;20411;-79
2021/08/03 08:42:00;;;;;;;16.15;12.63;;;;;;;18.13;83.90;100217.84;5119368;28;20046;-79
2021/08/03 08:44:27;;;;;;;14.50;13.10;;;;;;;17.95;85.65;100216.66;5110458;27;20039;-79
2021/08/03 08:46:58;;;;;;;17.23;14.57;;;;;;;17.91;86.93;100215.22;5110597;28;20069;-80
2021/08/03 08:49:25;;;;;;;19.98;15.70;;;;;;;17.98;88.04;100208.38;5110756;27;20638;-79
2021/08/03 08:51:53;;;;;;;21.35;17.15;;;;;;;18.01;87.98;100205.47;5110258;27;20155;-79
2021/08/03 08:54:19;;;;;;;20.40;18.23;;;;;;;17.96;87.75;100199.59;5115567;27;20054;-79
2021/08/03 08:56:46;;;;;;;17.92;15.52;;;;;;;18.01;88.10;100209.00;5118641;27;20063;-80
2021/08/03 08:59:13;;;;;;;18.02;16.10;;;;;;;17.98;87.59;100203.03;5114937;27;20124;-79
2021/08/03 09:01:39;;;;;;;18.63;16.02;;;;;;;17.95;87.35;100212.16;5119880;28;20135;-80
2021/08/03 09:04:07;;;;;;;17.77;15.85;;;;;;;17.96;87.02;100215.69;5116570;27;20048;-80
2021/08/03 09:06:34;;;;;;;19.10;15.55;;;;;;;17.84;86.88;100210.34;5116034;27;20069;-79
2021/08/03 09:09:16;;;;;;;16.27;14.23;;;;;;;17.76;87.14;100204.75;5120791;28;20078;-81
2021/08/03 09:11:47;;;;;;;21.00;17.40;;;;;;;17.60;87.51;100198.88;5123249;27;20043;-78
2021/08/03 09:14:34;;;;;;;20.65;16.58;;;;;;;17.59;88.87;100202.53;5115305;27;20077;-79
2021/08/03 09:17:02;;;;;;;19.45;17.45;;;;;;;17.72;90.06;100203.28;5113161;28;20052;-79
2021/08/03 09:19:35;;;;;;;19.50;17.42;;;;;;;17.85;89.97;100208.53;5108722;27;20055;-79
2021/08/03 09:22:13;;;;;;;20.48;18.27;;;;;;;17.95;89.48;100209.47;5110865;28;20071;-78
2021/08/03 09:24:42;;;;;;;18.75;16.77;;;;;;;17.96;87.96;100210.31;5118294;27;20073;-82
2021/08/03 09:27:29;;;;;;;19.92;14.60;;;;;;;17.98;86.62;100219.09;5115473;28;20060;-80
2021/08/03 09:29:56;;;;;;;18.40;16.13;;;;;;;18.05;87.95;100215.81;5117433;28;20052;-80
2021/08/03 09:32:34;;;;;;;18.40;15.00;;;;;;;18.05;87.07;100215.81;5120400;27;20078;-79
2021/08/03 09:35:16;;;;;;;16.35;14.25;;;;;;;17.91;86.85;100212.53;5123506;27;20160;-80
2021/08/03 09:37:43;;;;;;;20.58;14.77;;;;;;;17.96;88.63;100221.03;5128776;28;20075;-80
2021/08/03 09:40:16;;;;;;;22.58;14.80;;;;;;;18.00;88.10;100222.50;5114760;28;20048;-80
2021/08/03 09:42:45;;;;;;;16.52;13.52;;;;;;;17.95;87.57;100222.00;5124148;27;20050;-80
2021/08/03 09:45:11;;;;;;;17.23;13.52;;;;;;;18.02;88.17;100215.19;5112226;28;20047;-80
2021/08/03 09:47:38;;;;;;;14.00;12.57;;;;;;;18.08;88.73;100202.19;5122511;27;20043;-80
2021/08/03 09:50:09;;;;;;;12.13;10.93;;;;;;;18.15;86.38;100214.09;5122082;27;20119;-80
2021/08/03 09:52:41;;;;;;;11.88;10.52;;;;;;;18.07;86.51;100213.88;5116105;28;20044;-80
2021/08/03 09:55:17;;;;;;;10.75;9.65;;;;;;;18.01;85.98;100197.41;5118868;27;20048;-80
2021/08/03 09:57:46;;;;;;;9.25;8.35;;;;;;;18.04;85.45;100206.06;5119185;27;20122;-79
2021/08/03 10:00:37;;;;;;;10.48;9.00;;;;;;;17.98;84.55;100200.34;5118709;28;20044;-80
2021/08/03 10:03:06;;;;;;;9.57;8.20;;;;;;;17.96;84.49;100191.56;5118469;28;20046;-79
2021/08/03 10:05:34;;;;;;;8.50;7.50;;;;;;;18.01;85.62;100194.75;5127677;27;20039;-80
2021/08/03 10:08:02;;;;;;;10.20;8.05;;;;;;;17.99;85.58;100194.00;5121127;27;20418;-79
2021/08/03 10:10:29;;;;;;;7.93;7.20;;;;;;;17.88;84.66;100190.38;5124847;27;20052;-78
2021/08/03 10:12:56;;;;;;;8.60;7.00;;;;;;;17.83;84.33;100195.25;5123154;27;20047;-80
2021/08/03 10:15:23;;;;;;;8.27;6.93;;;;;;;17.72;85.13;100186.38;5111632;28;20059;-79
2021/08/03 10:17:52;;;;;;;7.13;6.43;;;;;;;17.63;85.53;100187.91;5122092;28;20098;-81
2021/08/03 10:20:19;;;;;;;6.85;6.10;;;;;;;17.54;84.94;100177.94;5122545;28;20059;-78
2021/08/03 10:22:58;;;;;;;6.57;5.95;;;;;;;17.59;85.70;100178.44;5126793;28;20086;-78
2021/08/03 10:25:40;;;;;;;6.90;4.60;;;;;;;17.70;83.22;100182.97;5129792;28;20023;-80
2021/08/03 10:28:22;;;;;;;4.88;4.43;;;;;;;17.84;83.17;100170.16;5127388;28;20046;-79
2021/08/03 10:30:49;;;;;;;4.22;3.35;;;;;;;18.02;82.71;100162.47;5127787;28;20047;-80
2021/08/03 10:33:43;;;;;;;5.35;3.92;;;;;;;18.11;81.54;100163.53;5120695;28;20103;-79
2021/08/03 10:36:36;;;;;;;4.70;3.20;;;;;;;18.38;80.88;100157.75;5117872;28;20081;-79
2021/08/03 10:39:09;;;;;;;3.85;3.30;;;;;;;18.45;80.25;100162.44;5126809;28;20037;-79
2021/08/03 10:41:57;;;;;;;4.43;3.03;;;;;;;18.39;79.50;100165.66;5124274;28;21511;-79
2021/08/03 10:44:40;;;;;;;4.50;3.22;;;;;;;18.29;79.45;100170.06;5117440;28;20142;-79
2021/08/03 10:47:31;;;;;;;3.80;3.00;;;;;;;18.32;79.85;100169.81;5118778;28;20059;-79
2021/08/03 10:50:40;;;;;;;5.35;2.97;;;;;;;18.49;80.20;100166.59;5119708;28;20075;-78
2021/08/03 10:53:07;;;;;;;5.50;2.90;;;;;;;18.57;77.69;100153.38;5079719;28;20135;-79
2021/08/03 10:55:43;;;;;;;4.97;2.53;;;;;;;18.64;76.39;100159.13;5065113;28;20051;-78
2021/08/03 10:58:09;;;;;;;2.30;2.10;;;;;;;18.66;76.09;100151.81;5102587;28;20509;-78
2021/08/03 11:00:53;;;;;;;3.15;2.17;;;;;;;18.58;75.24;100144.38;5109888;28;20044;-79
2021/08/03 11:03:35;;;;;;;2.55;1.80;;;;;;;18.35;74.37;100136.53;5131840;27;20044;-78
2021/08/03 11:06:06;;;;;;;2.45;1.63;;;;;;;18.29;75.93;100135.22;5121348;27;20126;-78
2021/08/03 11:08:54;;;;;;;3.57;1.90;;;;;;;18.35;77.40;100133.88;5123053;27;21072;-78
2021/08/03 11:11:25;;;;;;;3.95;1.75;;;;;;;18.48;76.91;100131.84;5136938;27;20485;-79
2021/08/03 11:14:26;;;;;;;4.30;1.98;;;;;;;18.45;75.65;100132.97;5122564;28;20048;-79
2021/08/03 11:16:53;;;;;;;3.42;2.33;;;;;;;18.35;75.44;100126.69;5122854;28;20047;-79
2021/08/03 11:19:29;;;;;;;2.33;2.05;;;;;;;18.31;75.51;100135.94;5122438;28;20049;-79
2021/08/03 11:21:58;;;;;;;4.95;1.75;;;;;;;18.32;76.43;100147.53;5123123;27;20054;-78
2021/08/03 11:24:36;;;;;;;1.63;1.30;;;;;;;18.27;75.73;100134.50;5117722;27;20024;-80
2021/08/03 11:27:03;;;;;;;1.30;1.02;;;;;;;18.20;77.12;100144.88;5119582;27;20056;-79
2021/08/03 11:29:39;;;;;;;1.52;1.20;;;;;;;18.17;77.37;100149.63;5117560;27;20054;-79
2021/08/03 11:32:09;;;;;;;1.63;1.40;;;;;;;18.09;79.11;100136.88;5114160;28;20463;-79
2021/08/03 11:34:42;;;;;;;2.65;1.20;;;;;;;18.09;79.53;100128.84;5109354;28;20696;-79
2021/08/03 11:37:20;;;;;;;3.50;1.50;;;;;;;18.25;79.52;100131.13;5116812;28;20268;-79
2021/08/03 11:39:51;;;;;;;2.63;1.67;;;;;;;18.34;78.50;100130.34;5111572;27;20061;-80